createdAt,value
2018-02-07T00:01:03.274Z,0.49
2018-02-07T00:03:31.648Z,0.40
2018-02-07T00:06:00.877Z,0.60
2018-02-07T00:08:31.259Z,0.49
2018-02-07T00:11:00.422Z,0.59
2018-02-07T00:13:28.829Z,0.58
2018-02-07T00:15:57.156Z,0.43
2018-02-07T00:18:25.503Z,0.46
2018-02-07T00:20:53.819Z,0.70
2018-02-07T00:23:22.185Z,0.54
2018-02-07T00:25:51.311Z,0.47
2018-02-07T00:28:19.618Z,0.29
2018-02-07T00:30:48.344Z,0.41
2018-02-07T00:33:16.679Z,0.39
2018-02-07T00:35:44.991Z,0.33
2018-02-07T00:38:13.336Z,0.31
2018-02-07T00:40:41.717Z,0.20
2018-02-07T00:43:10.063Z,0.25
2018-02-07T00:45:38.412Z,0.10
2018-02-07T00:48:06.763Z,0.31
2018-02-07T00:50:35.302Z,0.22
2018-02-07T00:53:04.456Z,0.23
2018-02-07T00:55:32.769Z,0.19
2018-02-07T00:58:01.105Z,0.25
2018-02-07T01:00:29.487Z,0.32
2018-02-07T01:02:58.134Z,0.27
2018-02-07T01:05:26.577Z,0.32
2018-02-07T01:07:55.713Z,0.24
2018-02-07T01:10:24.136Z,0.05
2018-02-07T01:12:52.475Z,0.22
2018-02-07T01:15:21.204Z,0.21
2018-02-07T01:17:49.576Z,0.11
2018-02-07T01:20:17.908Z,0.21
2018-02-07T01:22:46.332Z,0.06
2018-02-07T01:25:14.711Z,-0.15
2018-02-07T01:27:43.192Z,-0.07
2018-02-07T01:30:11.537Z,0.07
2018-02-07T01:32:39.836Z,0.02
2018-02-07T01:35:08.158Z,0.04
2018-02-07T01:37:37.347Z,0.05
2018-02-07T01:40:05.656Z,0.08
2018-02-07T01:42:33.965Z,0.05
2018-02-07T01:45:02.779Z,-0.13
2018-02-07T01:47:31.090Z,-0.15
2018-02-07T01:50:00.187Z,-0.15
2018-02-07T01:52:28.769Z,-0.11
2018-02-07T01:54:57.086Z,-0.10
2018-02-07T01:57:25.389Z,-0.25
2018-02-07T01:59:53.816Z,-0.19
2018-02-07T02:02:22.924Z,-0.47
2018-02-07T02:04:51.270Z,-0.29
2018-02-07T02:07:19.697Z,-0.27
2018-02-07T02:09:48.115Z,-0.34
2018-02-07T02:12:16.490Z,-0.30
2018-02-07T02:14:44.982Z,-0.25
2018-02-07T02:17:13.360Z,-0.30
2018-02-07T02:19:41.704Z,-0.29
2018-02-07T02:22:10.223Z,-0.40
2018-02-07T02:24:38.589Z,-0.39
2018-02-07T02:27:07.078Z,-0.36
2018-02-07T02:29:35.561Z,-0.32
2018-02-07T02:32:03.942Z,-0.37
2018-02-07T02:34:32.323Z,-0.64
2018-02-07T02:37:00.794Z,-0.59
2018-02-07T02:39:29.992Z,-0.82
2018-02-07T02:41:58.452Z,-0.86
2018-02-07T02:44:27.203Z,-0.71
2018-02-07T02:46:56.438Z,-0.61
2018-02-07T02:49:24.970Z,-0.74
2018-02-07T02:51:53.401Z,-0.79
2018-02-07T02:54:22.223Z,-0.69
2018-02-07T02:56:50.611Z,-0.69
2018-02-07T02:59:19.067Z,-0.77
2018-02-07T03:01:47.407Z,-0.82
2018-02-07T03:04:15.736Z,-0.71
2018-02-07T03:06:44.528Z,-0.71
2018-02-07T03:09:12.982Z,-0.78
2018-02-07T03:11:41.389Z,-0.58
2018-02-07T03:14:09.729Z,-0.71
2018-02-07T03:16:38.123Z,-0.83
2018-02-07T03:19:06.456Z,-0.77
2018-02-07T03:21:34.849Z,-0.67
2018-02-07T03:24:03.370Z,-0.84
2018-02-07T03:26:32.587Z,-0.85
2018-02-07T03:29:01.396Z,-1.02
2018-02-07T03:31:30.677Z,-0.98
2018-02-07T03:33:59.128Z,-1.07
2018-02-07T03:36:27.557Z,-1.02
2018-02-07T03:38:55.924Z,-1.00
2018-02-07T03:41:24.344Z,-0.95
2018-02-07T03:43:53.047Z,-0.95
2018-02-07T03:46:21.469Z,-0.86
2018-02-07T03:48:49.861Z,-0.88
2018-02-07T03:51:19.765Z,-0.81
2018-02-07T03:53:48.244Z,-0.65
2018-02-07T03:56:16.623Z,-0.86
2018-02-07T03:58:45.104Z,-0.71
2018-02-07T04:01:13.560Z,-0.69
2018-02-07T04:03:41.966Z,-0.68
2018-02-07T04:06:10.441Z,-0.77
2018-02-07T04:08:38.930Z,-0.91
2018-02-07T04:11:07.413Z,-0.86
2018-02-07T04:13:36.008Z,-0.88
2018-02-07T04:16:05.211Z,-1.09
2018-02-07T04:18:34.495Z,-1.16
2018-02-07T04:21:02.960Z,-1.13
2018-02-07T04:23:31.357Z,-1.15
2018-02-07T04:25:59.842Z,-1.04
2018-02-07T04:28:28.350Z,-0.99
2018-02-07T04:30:57.704Z,-1.06
2018-02-07T04:33:26.219Z,-1.03
2018-02-07T04:35:54.864Z,-1.00
2018-02-07T04:38:23.410Z,-1.06
2018-02-07T04:40:51.962Z,-1.24
2018-02-07T04:43:20.854Z,-1.20
2018-02-07T04:45:49.267Z,-1.05
2018-02-07T04:48:18.482Z,-0.97
2018-02-07T04:50:46.911Z,-0.98
2018-02-07T04:53:15.331Z,-0.95
2018-02-07T04:55:44.523Z,-0.97
2018-02-07T04:58:13.175Z,-1.07
2018-02-07T05:00:41.560Z,-1.21
2018-02-07T05:03:09.900Z,-1.24
2018-02-07T05:05:38.321Z,-1.46
2018-02-07T05:08:06.695Z,-1.53
2018-02-07T05:10:35.902Z,-1.38
2018-02-07T05:13:05.092Z,-1.38
2018-02-07T05:15:33.646Z,-1.38
2018-02-07T05:18:02.051Z,-1.45
2018-02-07T05:20:30.707Z,-1.55
2018-02-07T05:22:59.119Z,-1.56
2018-02-07T05:25:27.585Z,-1.53
2018-02-07T05:27:55.996Z,-1.57
2018-02-07T05:30:24.463Z,-1.58
2018-02-07T05:32:52.945Z,-1.64
2018-02-07T05:35:21.426Z,-1.63
2018-02-07T05:37:49.972Z,-1.62
2018-02-07T05:40:18.374Z,-1.76
2018-02-07T05:42:47.588Z,-1.74
2018-02-07T05:45:16.786Z,-1.77
2018-02-07T05:47:45.217Z,-1.67
2018-02-07T05:50:13.777Z,-1.63
2018-02-07T05:52:42.201Z,-1.50
2018-02-07T05:55:10.615Z,-1.64
2018-02-07T05:57:39.093Z,-1.66
2018-02-07T06:00:07.459Z,-1.69
2018-02-07T06:02:36.036Z,-1.81
2018-02-07T06:05:04.936Z,-1.76
2018-02-07T06:07:33.431Z,-1.74
2018-02-07T06:10:02.619Z,-1.71
2018-02-07T06:12:31.228Z,-1.68
2018-02-07T06:15:00.413Z,-1.75
2018-02-07T06:17:28.897Z,-1.71
2018-02-07T06:19:57.478Z,-1.72
2018-02-07T06:22:25.977Z,-1.90
2018-02-07T06:24:55.173Z,-1.87
2018-02-07T06:27:23.751Z,-1.70
2018-02-07T06:29:52.136Z,-1.84
2018-02-07T06:32:20.573Z,-1.86
2018-02-07T06:34:49.149Z,-1.98
2018-02-07T06:37:17.571Z,-1.87
2018-02-07T06:39:46.733Z,-1.85
2018-02-07T06:42:15.075Z,-1.82
2018-02-07T06:44:44.453Z,-1.74
2018-02-07T06:47:12.800Z,-1.95
2018-02-07T06:49:41.718Z,-1.81
2018-02-07T06:52:10.086Z,-1.82
2018-02-07T06:54:38.428Z,-1.89
2018-02-07T06:57:06.781Z,-1.68
2018-02-07T06:59:35.939Z,-1.40
2018-02-07T07:02:04.288Z,-1.45
2018-02-07T07:04:32.622Z,-1.43
2018-02-07T07:07:00.962Z,-1.42
2018-02-07T07:09:29.588Z,-1.47
2018-02-07T07:11:58.360Z,-1.32
2018-02-07T07:14:26.672Z,-1.31
2018-02-07T07:16:54.996Z,-1.19
2018-02-07T07:19:24.144Z,-1.20
2018-02-07T07:21:53.233Z,-1.41
2018-02-07T07:24:22.467Z,-1.29
2018-02-07T07:26:50.888Z,-1.25
2018-02-07T07:29:19.240Z,-1.33
2018-02-07T07:31:47.596Z,-0.83
2018-02-07T07:34:16.205Z,0.30
2018-02-07T07:36:44.526Z,1.54
2018-02-07T07:39:13.590Z,2.89
2018-02-07T07:41:41.924Z,3.74
2018-02-07T07:44:11.030Z,4.67
2018-02-07T07:46:39.557Z,4.94
2018-02-07T07:49:07.949Z,5.46
2018-02-07T07:51:36.266Z,6.53
2018-02-07T07:54:04.593Z,7.40
2018-02-07T07:56:33.297Z,8.12
2018-02-07T07:59:01.606Z,8.50
2018-02-07T08:01:29.930Z,8.95
2018-02-07T08:03:58.286Z,9.18
2018-02-07T08:06:26.699Z,9.63
2018-02-07T08:08:55.058Z,9.63
2018-02-07T08:11:23.443Z,9.81
2018-02-07T08:13:51.792Z,9.88
2018-02-07T08:16:20.121Z,10.42
2018-02-07T08:18:48.820Z,10.81
2018-02-07T08:21:17.148Z,10.86
2018-02-07T08:23:45.473Z,12.01
2018-02-07T08:26:14.652Z,12.20
2018-02-07T08:28:42.963Z,12.32
2018-02-07T08:31:12.155Z,13.09
2018-02-07T08:33:41.266Z,13.10
2018-02-07T08:36:10.372Z,13.83
2018-02-07T08:38:38.725Z,14.65
2018-02-07T08:41:07.901Z,15.28
2018-02-07T08:43:36.200Z,14.83
2018-02-07T08:46:05.325Z,14.89
2018-02-07T08:48:33.677Z,14.91
2018-02-07T08:51:02.016Z,15.75
2018-02-07T08:53:30.367Z,14.93
2018-02-07T08:55:58.737Z,14.84
2018-02-07T08:58:27.067Z,16.43
2018-02-07T09:00:55.431Z,16.39
2018-02-07T09:03:24.387Z,16.00
2018-02-07T09:05:52.741Z,16.51
2018-02-07T09:08:21.827Z,17.01
2018-02-07T09:10:50.179Z,17.55
2018-02-07T09:13:18.543Z,17.87
2018-02-07T09:15:46.872Z,17.81
2018-02-07T09:18:15.997Z,17.81
2018-02-07T09:20:45.092Z,17.44
2018-02-07T09:23:14.316Z,16.57
2018-02-07T09:25:43.205Z,16.87
2018-02-07T09:28:11.513Z,16.75
2018-02-07T09:30:39.861Z,17.69
2018-02-07T09:33:08.239Z,17.49
2018-02-07T09:35:36.612Z,17.42
2018-02-07T09:38:04.974Z,18.76
2018-02-07T09:40:33.840Z,19.04
2018-02-07T09:43:02.988Z,17.10
2018-02-07T09:45:31.308Z,18.28
2018-02-07T09:48:00.130Z,18.76
2018-02-07T09:50:28.476Z,19.17
2018-02-07T09:52:56.805Z,19.54
2018-02-07T09:55:25.133Z,19.24
2018-02-07T09:57:53.443Z,20.26
2018-02-07T10:00:21.744Z,19.75
2018-02-07T10:02:50.373Z,19.42
2018-02-07T10:05:18.699Z,20.21
2018-02-07T10:07:47.048Z,20.92
2018-02-07T10:10:16.421Z,20.87
2018-02-07T10:12:44.774Z,20.26
2018-02-07T10:15:13.155Z,19.32
2018-02-07T10:17:41.518Z,19.68
2018-02-07T10:20:09.836Z,20.08
2018-02-07T10:22:38.193Z,19.12
2018-02-07T10:25:06.545Z,19.73
2018-02-07T10:27:34.872Z,19.97
2018-02-07T10:30:03.220Z,21.44
2018-02-07T10:32:32.214Z,21.23
2018-02-07T10:35:00.606Z,23.03
2018-02-07T10:37:29.716Z,23.72
2018-02-07T10:39:58.152Z,21.80
2018-02-07T10:42:26.426Z,22.94
2018-02-07T10:44:54.744Z,21.90
2018-02-07T10:47:23.073Z,21.22
2018-02-07T10:49:52.196Z,21.22
2018-02-07T10:52:20.498Z,21.00
2018-02-07T10:54:49.103Z,21.10
2018-02-07T10:57:17.454Z,19.62
2018-02-07T10:59:45.804Z,15.17
2018-02-07T11:02:14.364Z,15.40
2018-02-07T11:04:42.714Z,17.07
2018-02-07T11:07:11.156Z,19.56
2018-02-07T11:09:39.501Z,19.58
2018-02-07T11:12:08.615Z,21.49
2018-02-07T11:14:37.014Z,21.71
2018-02-07T11:17:05.577Z,21.87
2018-02-07T11:19:33.911Z,22.37
2018-02-07T11:22:02.227Z,23.07
2018-02-07T11:24:30.573Z,22.58
2018-02-07T11:26:59.844Z,23.61
2018-02-07T11:29:28.248Z,23.42
2018-02-07T11:31:56.615Z,22.32
2018-02-07T11:34:24.911Z,23.07
2018-02-07T11:36:53.327Z,23.53
2018-02-07T11:39:21.945Z,22.07
2018-02-07T11:41:50.272Z,22.73
2018-02-07T11:44:19.361Z,22.39
2018-02-07T11:46:47.718Z,22.41
2018-02-07T11:49:16.098Z,23.89
2018-02-07T11:51:44.412Z,24.30
2018-02-07T11:54:13.520Z,22.86
2018-02-07T11:56:42.616Z,23.77
2018-02-07T11:59:10.966Z,23.25
2018-02-07T12:01:39.376Z,23.44
2018-02-07T12:04:07.686Z,23.70
2018-02-07T12:06:36.045Z,23.97
2018-02-07T12:09:04.417Z,23.61
2018-02-07T12:11:33.537Z,23.56
2018-02-07T12:14:01.885Z,23.76
2018-02-07T12:16:31.037Z,24.12
2018-02-07T12:18:59.357Z,23.61
2018-02-07T12:21:27.701Z,23.34
2018-02-07T12:23:56.501Z,24.49
2018-02-07T12:26:24.836Z,25.01
2018-02-07T12:28:53.153Z,23.44
2018-02-07T12:31:21.499Z,23.96
2018-02-07T12:33:49.888Z,24.21
2018-02-07T12:36:18.198Z,24.42
2018-02-07T12:38:47.398Z,23.55
2018-02-07T12:41:16.521Z,24.46
2018-02-07T12:43:44.845Z,24.85
2018-02-07T12:46:13.515Z,23.35
2018-02-07T12:48:41.859Z,22.31
2018-02-07T12:51:10.953Z,23.26
2018-02-07T12:53:40.080Z,22.79
2018-02-07T12:56:08.545Z,22.69
2018-02-07T12:58:36.914Z,22.62
2018-02-07T13:01:05.266Z,22.78
2018-02-07T13:03:33.606Z,23.03
2018-02-07T13:06:01.985Z,23.60
2018-02-07T13:08:30.617Z,23.69
2018-02-07T13:10:59.021Z,23.18
2018-02-07T13:13:27.344Z,23.50
2018-02-07T13:15:55.719Z,22.76
2018-02-07T13:18:24.072Z,22.36
2018-02-07T13:20:52.491Z,21.65
2018-02-07T13:23:20.920Z,22.69
2018-02-07T13:25:49.273Z,22.74
2018-02-07T13:28:18.401Z,22.54
2018-02-07T13:30:47.417Z,21.90
2018-02-07T13:33:15.739Z,21.45
2018-02-07T13:35:44.904Z,20.54
2018-02-07T13:38:13.226Z,20.24
2018-02-07T13:40:42.309Z,20.55
2018-02-07T13:43:10.634Z,21.89
2018-02-07T13:45:39.007Z,21.62
2018-02-07T13:48:07.374Z,21.21
2018-02-07T13:50:35.684Z,21.79
2018-02-07T13:53:04.557Z,21.03
2018-02-07T13:55:32.860Z,21.33
2018-02-07T13:58:01.612Z,21.07
2018-02-07T14:00:30.144Z,19.84
2018-02-07T14:02:58.467Z,19.78
2018-02-07T14:05:26.802Z,19.54
2018-02-07T14:07:55.161Z,19.91
2018-02-07T14:10:23.511Z,19.50
2018-02-07T14:12:51.913Z,19.05
2018-02-07T14:15:20.501Z,19.88
2018-02-07T14:17:48.830Z,18.85
2018-02-07T14:20:17.944Z,18.85
2018-02-07T14:22:47.130Z,19.15
2018-02-07T14:25:15.479Z,19.14
2018-02-07T14:27:43.800Z,18.86
2018-02-07T14:30:12.584Z,18.43
2018-02-07T14:32:40.942Z,17.94
2018-02-07T14:35:10.069Z,17.26
2018-02-07T14:37:42.573Z,16.75
2018-02-07T14:40:10.912Z,16.31
2018-02-07T14:42:39.989Z,16.36
2018-02-07T14:45:09.155Z,17.02
2018-02-07T14:47:37.500Z,17.23
2018-02-07T14:50:05.835Z,17.38
2018-02-07T14:52:34.191Z,17.17
2018-02-07T14:55:02.512Z,16.71
2018-02-07T14:57:30.848Z,16.86
2018-02-07T14:59:59.726Z,16.84
2018-02-07T15:02:28.074Z,16.69
2018-02-07T15:04:57.285Z,15.90
2018-02-07T15:07:25.649Z,15.20
2018-02-07T15:09:54.755Z,15.35
2018-02-07T15:12:23.822Z,15.31
2018-02-07T15:14:52.944Z,14.77
2018-02-07T15:17:22.163Z,14.90
2018-02-07T15:19:50.489Z,14.86
2018-02-07T15:22:19.073Z,14.92
2018-02-07T15:24:47.406Z,14.55
2018-02-07T15:27:15.712Z,14.38
2018-02-07T15:29:44.092Z,13.82
2018-02-07T15:32:12.457Z,13.46
2018-02-07T15:34:40.826Z,12.78
2018-02-07T15:37:09.178Z,12.50
2018-02-07T15:39:38.297Z,12.38
2018-02-07T15:42:06.638Z,12.17
2018-02-07T15:44:35.982Z,11.94
2018-02-07T15:47:04.326Z,11.45
2018-02-07T15:49:32.699Z,10.76
2018-02-07T15:52:01.832Z,9.67
2018-02-07T15:54:30.216Z,8.55
2018-02-07T15:56:58.531Z,8.15
2018-02-07T15:59:27.662Z,7.56
2018-02-07T16:01:56.045Z,7.65
2018-02-07T16:04:24.431Z,7.45
2018-02-07T16:06:53.053Z,6.85
2018-02-07T16:09:21.415Z,6.71
2018-02-07T16:11:49.791Z,6.44
2018-02-07T16:14:18.142Z,6.31
2018-02-07T16:16:46.460Z,6.12
2018-02-07T16:19:14.792Z,5.97
2018-02-07T16:21:43.303Z,5.77
2018-02-07T16:24:11.659Z,5.72
2018-02-07T16:26:40.731Z,5.76
2018-02-07T16:29:09.364Z,5.50
2018-02-07T16:31:37.682Z,5.44
2018-02-07T16:34:06.030Z,5.08
2018-02-07T16:36:34.452Z,5.17
2018-02-07T16:39:02.763Z,5.07
2018-02-07T16:41:31.086Z,5.08
2018-02-07T16:43:59.434Z,4.97
2018-02-07T16:46:27.776Z,4.90
2018-02-07T16:48:56.874Z,4.75
2018-02-07T16:51:26.109Z,4.85
2018-02-07T16:53:54.460Z,4.81
2018-02-07T16:56:23.630Z,4.84
2018-02-07T16:58:51.971Z,4.73
2018-02-07T17:01:20.354Z,4.65
2018-02-07T17:03:48.692Z,4.60
2018-02-07T17:06:17.083Z,4.55
2018-02-07T17:08:45.483Z,4.44
2018-02-07T17:11:13.830Z,4.34
2018-02-07T17:13:43.435Z,4.29
2018-02-07T17:16:11.800Z,4.25
2018-02-07T17:18:40.114Z,4.32
2018-02-07T17:21:08.498Z,4.27
2018-02-07T17:23:36.831Z,4.29
2018-02-07T17:26:05.171Z,4.07
2018-02-07T17:28:33.508Z,4.17
2018-02-07T17:31:01.848Z,4.16
2018-02-07T17:33:30.229Z,4.10
2018-02-07T17:35:58.637Z,4.10
2018-02-07T17:38:27.765Z,4.11
2018-02-07T17:40:56.163Z,3.92
2018-02-07T17:43:24.538Z,3.77
2018-02-07T17:45:52.944Z,3.52
2018-02-07T17:48:21.261Z,3.59
2018-02-07T17:50:50.729Z,3.49
2018-02-07T17:53:19.048Z,3.50
2018-02-07T17:55:48.117Z,3.55
2018-02-07T17:58:17.114Z,3.41
2018-02-07T18:00:45.751Z,3.55
2018-02-07T18:03:14.078Z,3.35
2018-02-07T18:05:42.431Z,3.44
2018-02-07T18:08:11.508Z,3.35
2018-02-07T18:10:39.836Z,3.26
2018-02-07T18:13:08.225Z,3.28
2018-02-07T18:15:37.464Z,2.92
2018-02-07T18:18:05.819Z,3.23
2018-02-07T18:20:34.788Z,3.24
2018-02-07T18:23:03.907Z,3.11
2018-02-07T18:25:32.255Z,3.07
2018-02-07T18:28:00.595Z,3.00
2018-02-07T18:30:28.957Z,3.06
2018-02-07T18:32:57.317Z,3.00
2018-02-07T18:35:25.663Z,3.10
2018-02-07T18:37:54.006Z,3.20
2018-02-07T18:40:22.319Z,3.06
2018-02-07T18:42:51.145Z,2.76
2018-02-07T18:45:19.537Z,2.61
2018-02-07T18:47:47.889Z,2.45
2018-02-07T18:50:17.073Z,2.81
2018-02-07T18:52:45.421Z,2.64
2018-02-07T18:55:13.799Z,2.67
2018-02-07T18:57:42.210Z,2.70
2018-02-07T19:00:10.561Z,2.69
2018-02-07T19:02:38.933Z,2.46
2018-02-07T19:05:07.597Z,2.50
2018-02-07T19:07:35.981Z,2.33
2018-02-07T19:10:05.136Z,2.38
2018-02-07T19:12:33.509Z,2.32
2018-02-07T19:15:01.871Z,2.16
2018-02-07T19:17:30.197Z,2.00
2018-02-07T19:19:58.576Z,2.24
2018-02-07T19:22:26.945Z,2.10
2018-02-07T19:24:56.053Z,2.03
2018-02-07T19:27:24.704Z,2.13
2018-02-07T19:29:53.030Z,2.02
2018-02-07T19:32:21.400Z,2.14
2018-02-07T19:34:49.803Z,2.05
2018-02-07T19:37:18.161Z,2.03
2018-02-07T19:39:46.503Z,1.93
2018-02-07T19:42:15.118Z,2.01
2018-02-07T19:44:43.480Z,1.98
2018-02-07T19:47:11.832Z,2.11
2018-02-07T19:49:40.667Z,2.01
2018-02-07T19:52:09.158Z,1.98
2018-02-07T19:54:37.482Z,2.04
2018-02-07T19:57:06.579Z,1.83
2018-02-07T19:59:34.894Z,1.84
2018-02-07T20:02:04.099Z,1.83
2018-02-07T20:04:32.483Z,1.66
2018-02-07T20:07:01.092Z,1.77
2018-02-07T20:09:29.449Z,1.62
2018-02-07T20:11:58.061Z,1.46
2018-02-07T20:14:26.410Z,1.51
2018-02-07T20:16:54.721Z,1.53
2018-02-07T20:19:23.100Z,1.51
2018-02-07T20:21:51.441Z,1.31
2018-02-07T20:24:20.571Z,1.35
2018-02-07T20:26:48.984Z,1.10
2018-02-07T20:29:17.324Z,1.27
2018-02-07T20:31:45.659Z,1.36
2018-02-07T20:34:14.568Z,1.14
2018-02-07T20:36:42.892Z,1.05
2018-02-07T20:39:11.257Z,1.11
2018-02-07T20:41:39.640Z,1.10
2018-02-07T20:44:08.065Z,1.01
2018-02-07T20:46:36.424Z,1.12
2018-02-07T20:49:04.845Z,0.91
2018-02-07T20:51:33.936Z,1.04
2018-02-07T20:54:02.308Z,1.11
2018-02-07T20:56:31.582Z,0.97
2018-02-07T20:58:59.925Z,0.94
2018-02-07T21:01:28.250Z,0.86
2018-02-07T21:03:56.672Z,0.79
2018-02-07T21:06:25.081Z,0.59
2018-02-07T21:08:53.406Z,0.51
2018-02-07T21:11:22.672Z,0.72
2018-02-07T21:13:51.681Z,0.61
2018-02-07T21:16:20.112Z,0.59
2018-02-07T21:18:49.192Z,0.59
2018-02-07T21:21:17.564Z,0.59
2018-02-07T21:23:46.084Z,0.43
2018-02-07T21:26:14.434Z,0.36
2018-02-07T21:28:43.545Z,0.44
2018-02-07T21:31:11.872Z,0.20
2018-02-07T21:33:40.223Z,0.36
2018-02-07T21:36:09.374Z,0.47
2018-02-07T21:38:38.605Z,0.33
2018-02-07T21:41:07.263Z,0.33
2018-02-07T21:43:35.608Z,0.35
2018-02-07T21:46:03.954Z,0.29
2018-02-07T21:48:32.364Z,0.30
2018-02-07T21:51:00.732Z,0.46
2018-02-07T21:53:29.081Z,0.31
2018-02-07T21:55:57.482Z,0.30
2018-02-07T21:58:25.873Z,0.39
2018-02-07T22:00:54.232Z,0.36
2018-02-07T22:03:23.106Z,0.37
2018-02-07T22:05:51.473Z,0.37
2018-02-07T22:08:19.822Z,0.25
2018-02-07T22:10:48.236Z,0.12
2018-02-07T22:13:16.611Z,0.12
2018-02-07T22:15:44.993Z,-0.07
2018-02-07T22:18:13.370Z,-0.12
2018-02-07T22:20:41.730Z,-0.19
2018-02-07T22:23:10.837Z,-0.10
2018-02-07T22:25:39.732Z,-0.17
2018-02-07T22:28:08.101Z,-0.42
2018-02-07T22:30:37.275Z,-0.45
2018-02-07T22:33:05.980Z,-0.46
2018-02-07T22:35:35.158Z,-0.57
2018-02-07T22:38:03.531Z,-0.25
2018-02-07T22:40:31.884Z,-0.35
2018-02-07T22:43:00.216Z,-0.37
2018-02-07T22:45:29.337Z,-0.34
2018-02-07T22:47:57.826Z,-0.25
2018-02-07T22:50:26.149Z,-0.40
2018-02-07T22:52:54.524Z,-0.52
2018-02-07T22:55:22.903Z,-0.36
2018-02-07T22:57:51.281Z,-0.59
2018-02-07T23:00:19.672Z,-0.45
2018-02-07T23:02:48.046Z,-0.55
2018-02-07T23:05:16.592Z,-0.77
2018-02-07T23:07:44.905Z,-0.87
2018-02-07T23:10:13.597Z,-0.96
2018-02-07T23:12:41.933Z,-0.93
2018-02-07T23:15:10.302Z,-0.92
2018-02-07T23:17:38.728Z,-1.00
2018-02-07T23:20:07.149Z,-1.19
2018-02-07T23:22:35.470Z,-1.24
2018-02-07T23:25:04.655Z,-1.29
2018-02-07T23:27:32.989Z,-1.21
2018-02-07T23:30:01.355Z,-1.14
2018-02-07T23:32:29.901Z,-1.15
2018-02-07T23:34:58.231Z,-1.28
2018-02-07T23:37:27.351Z,-1.18
2018-02-07T23:39:55.704Z,-1.16
2018-02-07T23:42:24.809Z,-0.92
2018-02-07T23:44:53.901Z,-0.84
2018-02-07T23:47:23.008Z,-1.21
2018-02-07T23:49:52.239Z,-1.11
2018-02-07T23:52:20.551Z,-1.34
2018-02-07T23:54:50.227Z,-1.03
2018-02-07T23:57:18.629Z,-1.19
2018-02-07T23:59:46.949Z,-1.09
